createdAt,value
2018-05-07T00:02:11.057Z,2.90
2018-05-07T00:35:04.569Z,2.77
2018-05-07T00:37:36.863Z,2.60
2018-05-07T00:42:59.741Z,2.43
2018-05-07T00:51:41.992Z,2.70
2018-05-07T00:54:40.824Z,2.90
2018-05-07T00:57:27.217Z,2.80
2018-05-07T02:10:31.756Z,2.67
2018-05-07T02:12:57.857Z,2.67
2018-05-07T02:15:23.937Z,3.50
2018-05-07T02:17:50.134Z,3.40
2018-05-07T02:20:16.265Z,3.33
2018-05-07T02:22:42.373Z,3.77
2018-05-07T02:25:08.478Z,4.07
2018-05-07T02:27:35.319Z,2.70
2018-05-07T02:30:01.447Z,3.20
2018-05-07T02:32:27.531Z,3.13
2018-05-07T02:34:53.622Z,3.57
2018-05-07T02:37:19.736Z,3.23
2018-05-07T02:39:45.849Z,3.40
2018-05-07T02:42:12.720Z,3.27
2018-05-07T02:44:38.844Z,3.17
2018-05-07T02:47:04.957Z,3.27
2018-05-07T02:49:31.779Z,5.93
2018-05-07T02:51:57.906Z,3.50
2018-05-07T02:54:24.029Z,3.47
2018-05-07T02:56:50.869Z,3.40
2018-05-07T02:59:17.757Z,3.37
2018-05-07T03:01:43.860Z,2.97
2018-05-07T03:04:10.692Z,2.80
2018-05-07T03:06:36.804Z,3.30
2018-05-07T03:09:02.950Z,3.30
2018-05-07T03:11:29.800Z,3.20
2018-05-07T03:13:55.969Z,3.50
2018-05-07T03:16:22.076Z,4.00
2018-05-07T03:18:48.173Z,3.40
2018-05-07T03:21:15.015Z,3.30
2018-05-07T03:23:41.943Z,3.43
2018-05-07T03:26:08.055Z,3.10
2018-05-07T03:28:34.168Z,2.97
2018-05-07T03:31:00.322Z,3.70
2018-05-07T03:33:26.418Z,3.50
2018-05-07T03:35:52.547Z,3.87
2018-05-07T03:38:18.630Z,3.67
2018-05-07T03:40:44.762Z,3.53
2018-05-07T03:43:10.859Z,3.40
2018-05-07T03:45:36.986Z,3.43
2018-05-07T03:48:03.112Z,3.10
2018-05-07T03:50:29.957Z,3.50
2018-05-07T03:52:56.092Z,3.60
2018-05-07T03:55:22.933Z,3.40
2018-05-07T03:57:49.778Z,3.93
2018-05-07T04:00:16.718Z,3.10
2018-05-07T04:02:43.588Z,3.63
2018-05-07T04:05:09.697Z,3.17
2018-05-07T04:07:35.821Z,3.40
2018-05-07T04:10:02.743Z,4.00
2018-05-07T04:12:28.876Z,3.20
2018-05-07T04:14:54.975Z,3.90
2018-05-07T04:17:33.489Z,4.10
2018-05-07T04:20:11.827Z,3.73
2018-05-07T04:22:50.210Z,4.03
2018-05-07T04:25:16.577Z,3.97
2018-05-07T04:27:42.718Z,3.60
2018-05-07T04:30:08.886Z,3.27
2018-05-07T04:32:34.977Z,4.33
2018-05-07T04:35:01.831Z,3.63
2018-05-07T04:37:27.983Z,3.83
2018-05-07T04:39:54.249Z,4.93
2018-05-07T04:42:20.370Z,4.17
2018-05-07T04:44:46.449Z,4.43
2018-05-07T04:47:12.551Z,4.33
2018-05-07T04:49:38.672Z,4.57
2018-05-07T04:52:04.912Z,4.50
2018-05-07T04:54:31.027Z,4.40
2018-05-07T04:56:57.177Z,4.67
2018-05-07T04:59:23.282Z,4.90
2018-05-07T05:01:50.203Z,4.50
2018-05-07T05:04:16.294Z,3.90
2018-05-07T05:06:42.373Z,4.20
2018-05-07T05:09:08.577Z,4.60
2018-05-07T05:11:34.972Z,4.10
2018-05-07T05:14:01.085Z,4.50
2018-05-07T05:16:27.218Z,4.77
2018-05-07T05:18:53.329Z,5.00
2018-05-07T05:21:20.234Z,5.37
2018-05-07T05:23:47.027Z,4.40
2018-05-07T05:26:13.109Z,4.67
2018-05-07T05:28:39.189Z,4.40
2018-05-07T05:31:05.345Z,4.97
2018-05-07T05:33:31.445Z,4.30
2018-05-07T05:35:57.615Z,4.17
2018-05-07T05:38:23.693Z,8.23
2018-05-07T05:40:49.814Z,4.80
2018-05-07T05:43:15.909Z,4.80
2018-05-07T05:45:42.022Z,5.33
2018-05-07T05:48:08.145Z,3.97
2018-05-07T05:50:34.283Z,3.33
2018-05-07T05:53:00.393Z,3.43
2018-05-07T05:55:28.449Z,3.60
2018-05-07T05:57:54.540Z,3.47
2018-05-07T06:00:20.659Z,3.50
2018-05-07T06:02:46.777Z,3.23
2018-05-07T06:05:13.630Z,2.90
2018-05-07T06:07:39.756Z,3.00
2018-05-07T06:10:05.969Z,3.27
2018-05-07T06:12:32.100Z,2.87
2018-05-07T06:14:58.317Z,2.53
2018-05-07T06:17:24.341Z,3.03
2018-05-07T06:19:50.441Z,2.70
2018-05-07T06:22:16.541Z,2.80
2018-05-07T06:24:42.652Z,2.93
2018-05-07T06:27:08.730Z,2.70
2018-05-07T06:29:34.842Z,2.40
2018-05-07T06:32:00.940Z,2.23
2018-05-07T06:34:27.177Z,2.80
2018-05-07T06:36:53.245Z,2.53
2018-05-07T06:39:19.361Z,2.77
2018-05-07T06:41:45.484Z,2.83
2018-05-07T06:44:11.613Z,2.67
2018-05-07T06:46:37.729Z,2.93
2018-05-07T06:49:03.830Z,2.57
2018-05-07T06:51:29.953Z,2.17
2018-05-07T06:53:56.218Z,2.67
2018-05-07T06:56:22.386Z,2.80
2018-05-07T06:58:48.529Z,2.30
2018-05-07T07:01:14.647Z,2.60
2018-05-07T07:03:40.972Z,2.70
2018-05-07T07:06:07.870Z,2.67
2018-05-07T07:08:34.271Z,2.70
2018-05-07T07:11:00.399Z,3.00
2018-05-07T07:13:26.520Z,2.37
2018-05-07T07:15:52.673Z,3.00
2018-05-07T07:18:18.828Z,2.60
2018-05-07T07:20:44.937Z,2.37
2018-05-07T07:23:11.078Z,2.70
2018-05-07T07:25:37.380Z,1.77
2018-05-07T07:28:03.567Z,1.87
2018-05-07T07:30:29.713Z,2.00
2018-05-07T07:32:55.896Z,2.27
2018-05-07T07:35:22.778Z,2.57
2018-05-07T07:37:48.889Z,1.97
2018-05-07T07:40:15.751Z,2.00
2018-05-07T07:42:41.881Z,1.83
2018-05-07T07:45:07.995Z,1.93
2018-05-07T07:47:34.125Z,2.73
2018-05-07T07:50:00.577Z,2.00
2018-05-07T07:52:26.808Z,2.33
2018-05-07T07:54:52.943Z,2.40
2018-05-07T07:57:19.118Z,2.13
2018-05-07T07:59:46.003Z,1.90
2018-05-07T08:02:12.374Z,1.70
2018-05-07T08:04:38.547Z,2.53
2018-05-07T08:07:04.680Z,2.33
2018-05-07T08:09:30.774Z,2.17
2018-05-07T08:11:56.894Z,2.30
2018-05-07T08:14:23.062Z,1.67
2018-05-07T08:16:49.319Z,2.40
2018-05-07T08:19:19.762Z,2.43
2018-05-07T08:21:46.684Z,2.40
2018-05-07T08:24:20.311Z,2.57
2018-05-07T08:26:47.144Z,1.83
2018-05-07T08:29:16.758Z,2.50
2018-05-07T08:31:45.401Z,2.40
2018-05-07T08:34:11.667Z,2.10
2018-05-07T08:36:39.787Z,1.90
2018-05-07T08:45:13.191Z,2.00
2018-05-07T08:47:43.838Z,2.00
2018-05-07T09:02:24.281Z,2.17
2018-05-07T09:04:50.568Z,1.97
2018-05-07T09:07:16.678Z,2.23
2018-05-07T09:09:42.844Z,2.40
2018-05-07T09:12:09.007Z,2.37
2018-05-07T09:14:37.046Z,2.00
2018-05-07T09:17:03.080Z,2.03
2018-05-07T09:19:29.257Z,1.93
2018-05-07T09:21:55.377Z,2.53
2018-05-07T09:24:22.217Z,2.07
2018-05-07T09:26:49.060Z,1.53
2018-05-07T09:29:15.238Z,2.50
2018-05-07T09:31:41.376Z,2.20
2018-05-07T09:34:07.492Z,2.37
2018-05-07T09:36:33.613Z,2.10
2018-05-07T09:38:59.826Z,1.83
2018-05-07T09:41:25.937Z,1.37
2018-05-07T09:43:52.044Z,2.03
2018-05-07T09:46:18.138Z,1.77
2018-05-07T09:48:44.256Z,1.70
2018-05-07T09:51:10.368Z,2.07
2018-05-07T09:53:36.574Z,2.07
2018-05-07T09:56:02.697Z,2.50
2018-05-07T09:58:28.872Z,1.70
2018-05-07T10:00:54.971Z,2.80
2018-05-07T10:03:21.085Z,1.90
2018-05-07T10:05:47.206Z,2.13
2018-05-07T10:08:13.452Z,1.80
2018-05-07T10:10:39.857Z,1.80
2018-05-07T10:13:06.171Z,2.20
2018-05-07T10:15:36.131Z,2.17
2018-05-07T10:18:03.304Z,1.87
2018-05-07T10:20:29.782Z,2.23
2018-05-07T10:22:55.946Z,2.43
2018-05-07T10:25:22.306Z,2.27
2018-05-07T10:27:48.566Z,2.60
2018-05-07T10:30:14.789Z,10.73
2018-05-07T10:32:40.989Z,2.50
2018-05-07T10:35:07.274Z,2.00
2018-05-07T10:37:35.485Z,2.20
2018-05-07T10:40:01.904Z,1.77
2018-05-07T10:42:29.212Z,2.90
2018-05-07T10:44:56.330Z,2.10
2018-05-07T10:47:23.350Z,2.10
2018-05-07T10:49:52.370Z,1.60
2018-05-07T10:52:19.292Z,2.57
2018-05-07T10:54:48.862Z,2.10
2018-05-07T10:57:19.368Z,2.07
2018-05-07T10:59:50.130Z,2.03
2018-05-07T11:02:20.702Z,1.60
2018-05-07T11:04:50.115Z,2.07
2018-05-07T11:07:22.323Z,2.23
2018-05-07T11:10:00.127Z,2.03
2018-05-07T11:15:11.165Z,2.27
2018-05-07T11:17:41.153Z,1.93
2018-05-07T11:20:13.239Z,1.70
2018-05-07T11:58:31.187Z,2.10
2018-05-07T12:00:57.685Z,2.00
2018-05-07T12:03:24.375Z,2.10
2018-05-07T12:11:58.420Z,1.67
2018-05-07T12:14:24.892Z,1.70
2018-05-07T12:16:51.583Z,1.50
2018-05-07T12:19:18.746Z,1.90
2018-05-07T12:24:35.197Z,2.60
2018-05-07T12:27:01.794Z,2.00
2018-05-07T12:29:37.006Z,1.57
2018-05-07T12:32:05.515Z,2.07
2018-05-07T12:34:35.102Z,1.70
2018-05-07T12:37:01.967Z,1.80
2018-05-07T12:39:31.579Z,2.10
2018-05-07T12:41:59.212Z,2.00
2018-05-07T12:44:40.154Z,1.73
2018-05-07T12:47:27.865Z,2.00
2018-05-07T12:49:55.465Z,2.00
2018-05-07T12:52:23.598Z,1.50
2018-05-07T12:54:52.726Z,1.70
2018-05-07T12:57:20.404Z,1.87
2018-05-07T12:59:49.689Z,1.87
2018-05-07T13:02:16.918Z,1.60
2018-05-07T13:04:43.280Z,2.00
2018-05-07T13:07:09.730Z,2.30
2018-05-07T13:09:39.704Z,1.50
2018-05-07T13:12:06.662Z,1.40
2018-05-07T13:14:47.818Z,2.07
2018-05-07T13:17:15.171Z,1.87
2018-05-07T13:19:42.285Z,2.17
2018-05-07T13:22:13.785Z,1.50
2018-05-07T13:24:42.064Z,1.40
2018-05-07T13:27:09.261Z,1.60
2018-05-07T13:29:35.682Z,2.17
2018-05-07T13:32:10.482Z,1.43
2018-05-07T13:34:38.626Z,1.57
2018-05-07T13:37:05.349Z,2.00
2018-05-07T13:42:06.865Z,1.87
2018-05-07T13:44:33.048Z,1.93
2018-05-07T13:47:01.907Z,1.47
2018-05-07T13:49:35.656Z,1.90
2018-05-07T13:52:01.892Z,1.57
2018-05-07T13:54:28.275Z,1.30
2018-05-07T13:56:56.463Z,1.40
2018-05-07T13:59:24.522Z,2.07
2018-05-07T14:01:51.044Z,1.57
2018-05-07T14:04:17.903Z,1.40
2018-05-07T14:06:47.720Z,1.97
2018-05-07T14:12:25.836Z,1.30
2018-05-07T14:14:55.147Z,1.47
2018-05-07T14:20:43.979Z,1.50
2018-05-07T14:23:11.688Z,1.53
2018-05-07T14:25:40.609Z,1.40
2018-05-07T14:28:12.551Z,1.40
2018-05-07T14:30:40.342Z,1.67
2018-05-07T14:33:18.912Z,1.17
2018-05-07T14:35:49.256Z,1.80
2018-05-07T14:38:16.013Z,1.20
2018-05-07T14:40:45.427Z,1.23
2018-05-07T14:43:12.747Z,1.33
2018-05-07T14:45:41.640Z,1.10
2018-05-07T14:48:10.343Z,1.23
2018-05-07T14:50:36.593Z,1.37
2018-05-07T14:53:04.591Z,1.63
2018-05-07T14:55:32.641Z,1.57
2018-05-07T14:58:01.962Z,1.40
2018-05-07T15:03:52.292Z,1.53
2018-05-07T15:06:19.935Z,1.47
2018-05-07T15:08:46.583Z,2.10
2018-05-07T15:14:21.665Z,1.67
2018-05-07T15:16:52.080Z,1.40
2018-05-07T15:19:23.702Z,1.37
2018-05-07T15:21:52.249Z,1.20
2018-05-07T15:24:20.376Z,1.40
2018-05-07T15:26:48.873Z,1.37
2018-05-07T15:29:17.819Z,1.43
2018-05-07T15:31:47.052Z,1.43
2018-05-07T15:34:13.968Z,2.30
2018-05-07T15:36:44.904Z,1.00
2018-05-07T15:39:14.928Z,1.20
2018-05-07T15:41:41.286Z,1.20
2018-05-07T15:44:07.609Z,1.00
2018-05-07T16:38:28.483Z,0.90
2018-05-07T16:41:04.629Z,1.00
2018-05-07T16:43:39.866Z,1.37
2018-05-07T16:46:08.135Z,0.90
2018-05-07T16:48:46.980Z,1.70
2018-05-07T16:51:17.886Z,1.20
2018-05-07T16:53:45.541Z,1.27
2018-05-07T16:56:12.004Z,2.07
2018-05-07T17:01:29.377Z,2.03
2018-05-07T17:04:11.723Z,1.57
2018-05-07T17:06:50.295Z,1.30
2018-05-07T17:09:21.538Z,1.50
2018-05-07T17:11:48.979Z,1.80
2018-05-07T17:14:17.850Z,2.57
2018-05-07T17:16:44.456Z,1.60
2018-05-07T17:28:26.920Z,2.00
2018-05-07T17:30:53.660Z,1.50
2018-05-07T17:36:14.367Z,1.90
2018-05-07T17:38:51.486Z,1.43
2018-05-07T17:47:09.266Z,1.50
2018-05-07T17:50:30.932Z,2.00
2018-05-07T17:56:17.115Z,1.67
2018-05-07T17:58:47.731Z,2.00
2018-05-07T18:15:32.642Z,2.00
2018-05-07T18:18:00.670Z,1.97
2018-05-07T18:20:27.815Z,1.60
2018-05-07T18:22:54.256Z,1.50
2018-05-07T18:25:34.218Z,2.50
2018-05-07T18:28:15.777Z,1.70
2018-05-07T18:30:48.381Z,1.80
2018-05-07T18:33:27.051Z,1.83
2018-05-07T18:36:00.250Z,1.97
2018-05-07T18:38:43.213Z,1.93
2018-05-07T18:43:44.787Z,2.43
2018-05-07T18:46:12.787Z,2.60
2018-05-07T18:48:40.714Z,2.20
2018-05-07T18:51:07.701Z,2.33
2018-05-07T18:53:35.163Z,1.83
2018-05-07T18:56:01.969Z,2.40
2018-05-07T18:58:33.155Z,3.00
2018-05-07T19:01:04.734Z,2.10
2018-05-07T19:03:59.105Z,2.90
2018-05-07T19:09:35.579Z,2.47
2018-05-07T19:27:58.348Z,3.07
2018-05-07T19:30:24.522Z,3.20
2018-05-07T19:32:50.967Z,3.43
2018-05-07T19:35:33.841Z,2.93
2018-05-07T19:38:12.397Z,3.40
2018-05-07T19:41:08.477Z,2.87
2018-05-07T19:43:35.210Z,3.20
2018-05-07T19:46:15.172Z,3.00
2018-05-07T19:48:58.325Z,3.30
2018-05-07T19:51:24.729Z,4.37
2018-05-07T19:53:52.059Z,3.83
2018-05-07T19:56:20.818Z,3.50
2018-05-07T19:58:47.281Z,3.80
2018-05-07T20:03:56.616Z,4.47
2018-05-07T20:06:23.411Z,4.20
2018-05-07T20:08:50.570Z,2.80
2018-05-07T20:11:17.088Z,4.00
2018-05-07T20:13:44.239Z,3.27
2018-05-07T20:16:11.236Z,3.50
2018-05-07T20:18:38.675Z,3.27
2018-05-07T20:21:05.431Z,2.97
2018-05-07T20:23:31.997Z,3.60
2018-05-07T20:25:58.561Z,3.40
2018-05-07T20:28:24.886Z,3.10
2018-05-07T20:30:51.377Z,3.43
2018-05-07T20:33:17.888Z,2.40
2018-05-07T20:38:30.153Z,3.77
2018-05-07T20:40:57.306Z,2.90
2018-05-07T20:43:34.793Z,3.60
2018-05-07T20:46:11.370Z,4.17
2018-05-07T20:48:51.907Z,3.67
2018-05-07T20:59:49.662Z,4.00
2018-05-07T21:02:15.920Z,4.10
2018-05-07T21:05:08.874Z,3.97
